sensor_id;sensor_type;location;lat;lon;timestamp;P1;durP1;ratioP1;P2;durP2;ratioP2
56183;SDS011;42086;53.170;6.980;2022-07-30T00:01:39;10.90;;;8.60;;
56183;SDS011;42086;53.170;6.980;2022-07-30T00:04:11;11.93;;;8.88;;
56183;SDS011;42086;53.170;6.980;2022-07-30T00:06:37;11.85;;;9.20;;
56183;SDS011;42086;53.170;6.980;2022-07-30T00:09:04;11.02;;;9.02;;
56183;SDS011;42086;53.170;6.980;2022-07-30T00:11:30;14.00;;;10.27;;
56183;SDS011;42086;53.170;6.980;2022-07-30T00:13:56;14.40;;;11.48;;
56183;SDS011;42086;53.170;6.980;2022-07-30T00:16:22;11.98;;;10.75;;
56183;SDS011;42086;53.170;6.980;2022-07-30T00:18:48;6.93;;;6.20;;
56183;SDS011;42086;53.170;6.980;2022-07-30T00:21:14;6.20;;;5.00;;
56183;SDS011;42086;53.170;6.980;2022-07-30T00:23:40;7.53;;;6.45;;
56183;SDS011;42086;53.170;6.980;2022-07-30T00:26:05;11.63;;;8.32;;
56183;SDS011;42086;53.170;6.980;2022-07-30T00:28:31;7.35;;;6.07;;
56183;SDS011;42086;53.170;6.980;2022-07-30T00:30:57;9.88;;;7.32;;
56183;SDS011;42086;53.170;6.980;2022-07-30T00:33:23;11.88;;;8.57;;
56183;SDS011;42086;53.170;6.980;2022-07-30T00:35:49;12.60;;;9.02;;
56183;SDS011;42086;53.170;6.980;2022-07-30T00:38:15;15.93;;;11.18;;
56183;SDS011;42086;53.170;6.980;2022-07-30T00:40:41;14.90;;;11.75;;
56183;SDS011;42086;53.170;6.980;2022-07-30T00:43:06;14.38;;;11.52;;
56183;SDS011;42086;53.170;6.980;2022-07-30T00:45:32;18.00;;;15.10;;
56183;SDS011;42086;53.170;6.980;2022-07-30T00:47:59;16.00;;;12.73;;
56183;SDS011;42086;53.170;6.980;2022-07-30T00:50:25;76.85;;;11.38;;
56183;SDS011;42086;53.170;6.980;2022-07-30T00:52:51;16.42;;;10.20;;
56183;SDS011;42086;53.170;6.980;2022-07-30T00:55:17;14.75;;;11.35;;
56183;SDS011;42086;53.170;6.980;2022-07-30T00:57:43;13.77;;;11.18;;
56183;SDS011;42086;53.170;6.980;2022-07-30T01:00:10;15.65;;;11.18;;
56183;SDS011;42086;53.170;6.980;2022-07-30T01:02:38;16.85;;;12.10;;
56183;SDS011;42086;53.170;6.980;2022-07-30T01:05:04;19.05;;;14.20;;
56183;SDS011;42086;53.170;6.980;2022-07-30T01:07:31;15.43;;;12.20;;
56183;SDS011;42086;53.170;6.980;2022-07-30T01:09:57;103.32;;;12.88;;
56183;SDS011;42086;53.170;6.980;2022-07-30T01:12:24;18.27;;;13.18;;
56183;SDS011;42086;53.170;6.980;2022-07-30T01:14:51;13.40;;;11.05;;
56183;SDS011;42086;53.170;6.980;2022-07-30T01:17:18;9.70;;;6.15;;
56183;SDS011;42086;53.170;6.980;2022-07-30T01:19:44;9.00;;;7.03;;
56183;SDS011;42086;53.170;6.980;2022-07-30T01:27:32;281.40;;;12.27;;
56183;SDS011;42086;53.170;6.980;2022-07-30T01:30:02;44.22;;;9.10;;
56183;SDS011;42086;53.170;6.980;2022-07-30T01:32:29;12.80;;;10.40;;
56183;SDS011;42086;53.170;6.980;2022-07-30T01:34:57;17.85;;;11.43;;
56183;SDS011;42086;53.170;6.980;2022-07-30T01:37:25;13.30;;;10.40;;
56183;SDS011;42086;53.170;6.980;2022-07-30T01:39:52;16.33;;;10.13;;
56183;SDS011;42086;53.170;6.980;2022-07-30T01:42:19;15.68;;;10.38;;
56183;SDS011;42086;53.170;6.980;2022-07-30T01:44:48;12.38;;;9.55;;
56183;SDS011;42086;53.170;6.980;2022-07-30T01:47:15;14.20;;;9.07;;
56183;SDS011;42086;53.170;6.980;2022-07-30T01:49:44;12.77;;;9.23;;
56183;SDS011;42086;53.170;6.980;2022-07-30T01:52:11;56.25;;;9.05;;
56183;SDS011;42086;53.170;6.980;2022-07-30T01:54:40;11.77;;;9.23;;
56183;SDS011;42086;53.170;6.980;2022-07-30T01:57:09;14.60;;;10.20;;
56183;SDS011;42086;53.170;6.980;2022-07-30T01:59:38;15.10;;;10.13;;
56183;SDS011;42086;53.170;6.980;2022-07-30T02:02:08;14.48;;;10.35;;
56183;SDS011;42086;53.170;6.980;2022-07-30T02:04:34;13.85;;;9.88;;
56183;SDS011;42086;53.170;6.980;2022-07-30T02:07:05;18.60;;;13.40;;
56183;SDS011;42086;53.170;6.980;2022-07-30T02:09:39;126.57;;;12.55;;
56183;SDS011;42086;53.170;6.980;2022-07-30T02:12:10;10.27;;;8.35;;
56183;SDS011;42086;53.170;6.980;2022-07-30T02:17:28;8.25;;;6.30;;
56183;SDS011;42086;53.170;6.980;2022-07-30T02:20:01;64.30;;;6.90;;
56183;SDS011;42086;53.170;6.980;2022-07-30T02:22:29;8.43;;;5.65;;
56183;SDS011;42086;53.170;6.980;2022-07-30T02:24:59;7.32;;;6.28;;
56183;SDS011;42086;53.170;6.980;2022-07-30T02:27:28;9.93;;;7.88;;
56183;SDS011;42086;53.170;6.980;2022-07-30T02:29:58;10.27;;;8.30;;
56183;SDS011;42086;53.170;6.980;2022-07-30T02:32:26;14.10;;;9.68;;
56183;SDS011;42086;53.170;6.980;2022-07-30T02:34:59;16.33;;;10.05;;
56183;SDS011;42086;53.170;6.980;2022-07-30T02:37:34;80.45;;;10.13;;
56183;SDS011;42086;53.170;6.980;2022-07-30T02:40:03;11.77;;;6.13;;
56183;SDS011;42086;53.170;6.980;2022-07-30T02:42:29;8.63;;;5.57;;
56183;SDS011;42086;53.170;6.980;2022-07-30T02:44:57;8.52;;;5.60;;
56183;SDS011;42086;53.170;6.980;2022-07-30T02:47:24;7.07;;;4.60;;
56183;SDS011;42086;53.170;6.980;2022-07-30T02:49:52;8.25;;;5.40;;
56183;SDS011;42086;53.170;6.980;2022-07-30T02:52:19;9.13;;;7.30;;
56183;SDS011;42086;53.170;6.980;2022-07-30T02:54:46;11.48;;;8.88;;
56183;SDS011;42086;53.170;6.980;2022-07-30T02:57:14;13.13;;;10.10;;
56183;SDS011;42086;53.170;6.980;2022-07-30T02:59:42;10.25;;;8.15;;
56183;SDS011;42086;53.170;6.980;2022-07-30T03:02:09;8.10;;;7.18;;
56183;SDS011;42086;53.170;6.980;2022-07-30T03:04:37;10.98;;;8.57;;
56183;SDS011;42086;53.170;6.980;2022-07-30T03:07:04;14.18;;;9.45;;
56183;SDS011;42086;53.170;6.980;2022-07-30T03:09:31;12.60;;;8.90;;
56183;SDS011;42086;53.170;6.980;2022-07-30T03:11:58;13.68;;;11.52;;
56183;SDS011;42086;53.170;6.980;2022-07-30T03:14:27;12.32;;;9.25;;
56183;SDS011;42086;53.170;6.980;2022-07-30T03:16:57;12.93;;;10.15;;
56183;SDS011;42086;53.170;6.980;2022-07-30T03:19:24;14.25;;;9.18;;
56183;SDS011;42086;53.170;6.980;2022-07-30T03:21:52;14.00;;;10.18;;
56183;SDS011;42086;53.170;6.980;2022-07-30T03:24:21;13.95;;;10.80;;
56183;SDS011;42086;53.170;6.980;2022-07-30T03:26:48;15.50;;;11.18;;
56183;SDS011;42086;53.170;6.980;2022-07-30T03:29:18;17.02;;;11.10;;
56183;SDS011;42086;53.170;6.980;2022-07-30T03:31:46;16.63;;;11.13;;
56183;SDS011;42086;53.170;6.980;2022-07-30T03:34:13;15.95;;;12.38;;
56183;SDS011;42086;53.170;6.980;2022-07-30T03:36:41;15.80;;;11.77;;
56183;SDS011;42086;53.170;6.980;2022-07-30T03:39:07;16.77;;;12.50;;
56183;SDS011;42086;53.170;6.980;2022-07-30T03:41:34;13.68;;;9.38;;
56183;SDS011;42086;53.170;6.980;2022-07-30T03:44:01;22.08;;;12.10;;
56183;SDS011;42086;53.170;6.980;2022-07-30T03:46:27;14.20;;;10.55;;
56183;SDS011;42086;53.170;6.980;2022-07-30T03:48:55;12.55;;;9.15;;
56183;SDS011;42086;53.170;6.980;2022-07-30T03:51:21;10.43;;;9.00;;
56183;SDS011;42086;53.170;6.980;2022-07-30T03:53:48;13.15;;;10.40;;
56183;SDS011;42086;53.170;6.980;2022-07-30T03:56:15;14.68;;;10.70;;
56183;SDS011;42086;53.170;6.980;2022-07-30T03:58:42;15.30;;;10.95;;
56183;SDS011;42086;53.170;6.980;2022-07-30T04:01:08;13.02;;;10.10;;
56183;SDS011;42086;53.170;6.980;2022-07-30T04:03:34;19.73;;;7.20;;
56183;SDS011;42086;53.170;6.980;2022-07-30T04:06:00;7.22;;;6.50;;
56183;SDS011;42086;53.170;6.980;2022-07-30T04:08:26;6.93;;;6.28;;
56183;SDS011;42086;53.170;6.980;2022-07-30T04:10:53;9.50;;;8.13;;
56183;SDS011;42086;53.170;6.980;2022-07-30T04:13:19;16.58;;;11.02;;
56183;SDS011;42086;53.170;6.980;2022-07-30T04:15:50;13.57;;;11.30;;
56183;SDS011;42086;53.170;6.980;2022-07-30T04:18:23;11.68;;;9.88;;
56183;SDS011;42086;53.170;6.980;2022-07-30T04:20:54;10.50;;;9.10;;
56183;SDS011;42086;53.170;6.980;2022-07-30T04:23:20;12.90;;;9.25;;
56183;SDS011;42086;53.170;6.980;2022-07-30T04:25:46;11.73;;;9.45;;
56183;SDS011;42086;53.170;6.980;2022-07-30T04:28:13;15.82;;;11.60;;
56183;SDS011;42086;53.170;6.980;2022-07-30T04:30:40;13.30;;;10.18;;
56183;SDS011;42086;53.170;6.980;2022-07-30T04:33:06;15.65;;;10.82;;
56183;SDS011;42086;53.170;6.980;2022-07-30T04:35:33;24.45;;;18.30;;
56183;SDS011;42086;53.170;6.980;2022-07-30T04:37:59;30.77;;;18.23;;
56183;SDS011;42086;53.170;6.980;2022-07-30T04:40:28;34.35;;;21.08;;
56183;SDS011;42086;53.170;6.980;2022-07-30T04:42:55;24.88;;;18.75;;
56183;SDS011;42086;53.170;6.980;2022-07-30T04:45:22;30.25;;;20.10;;
56183;SDS011;42086;53.170;6.980;2022-07-30T04:47:48;28.23;;;19.30;;
56183;SDS011;42086;53.170;6.980;2022-07-30T04:50:19;30.98;;;19.20;;
56183;SDS011;42086;53.170;6.980;2022-07-30T04:52:48;31.58;;;21.88;;
56183;SDS011;42086;53.170;6.980;2022-07-30T04:55:16;31.33;;;22.20;;
56183;SDS011;42086;53.170;6.980;2022-07-30T04:57:43;21.30;;;16.65;;
56183;SDS011;42086;53.170;6.980;2022-07-30T05:00:11;23.42;;;17.85;;
56183;SDS011;42086;53.170;6.980;2022-07-30T05:02:37;27.75;;;19.77;;
56183;SDS011;42086;53.170;6.980;2022-07-30T05:05:05;25.17;;;16.98;;
56183;SDS011;42086;53.170;6.980;2022-07-30T05:07:33;28.17;;;19.67;;
56183;SDS011;42086;53.170;6.980;2022-07-30T05:09:59;34.33;;;21.02;;
56183;SDS011;42086;53.170;6.980;2022-07-30T05:12:32;29.88;;;20.33;;
56183;SDS011;42086;53.170;6.980;2022-07-30T05:14:58;30.67;;;19.88;;
56183;SDS011;42086;53.170;6.980;2022-07-30T05:17:24;22.88;;;16.30;;
56183;SDS011;42086;53.170;6.980;2022-07-30T05:19:50;30.52;;;20.17;;
56183;SDS011;42086;53.170;6.980;2022-07-30T05:22:16;27.83;;;18.48;;
56183;SDS011;42086;53.170;6.980;2022-07-30T05:24:42;31.95;;;20.17;;
56183;SDS011;42086;53.170;6.980;2022-07-30T05:27:08;27.77;;;19.13;;
56183;SDS011;42086;53.170;6.980;2022-07-30T05:29:35;29.15;;;18.83;;
56183;SDS011;42086;53.170;6.980;2022-07-30T05:32:01;29.00;;;20.10;;
56183;SDS011;42086;53.170;6.980;2022-07-30T05:34:27;31.13;;;19.60;;
56183;SDS011;42086;53.170;6.980;2022-07-30T05:36:53;28.05;;;19.27;;
56183;SDS011;42086;53.170;6.980;2022-07-30T05:39:19;26.58;;;19.23;;
56183;SDS011;42086;53.170;6.980;2022-07-30T05:41:48;25.98;;;18.42;;
56183;SDS011;42086;53.170;6.980;2022-07-30T05:44:15;22.50;;;17.73;;
56183;SDS011;42086;53.170;6.980;2022-07-30T05:46:41;27.67;;;18.10;;
56183;SDS011;42086;53.170;6.980;2022-07-30T05:49:07;31.77;;;19.40;;
56183;SDS011;42086;53.170;6.980;2022-07-30T05:51:33;26.25;;;18.38;;
56183;SDS011;42086;53.170;6.980;2022-07-30T05:53:59;27.80;;;17.75;;
56183;SDS011;42086;53.170;6.980;2022-07-30T05:56:26;28.98;;;17.42;;
56183;SDS011;42086;53.170;6.980;2022-07-30T05:58:52;27.02;;;18.73;;
56183;SDS011;42086;53.170;6.980;2022-07-30T06:01:18;26.88;;;17.30;;
56183;SDS011;42086;53.170;6.980;2022-07-30T06:03:44;26.40;;;18.45;;
56183;SDS011;42086;53.170;6.980;2022-07-30T06:06:10;20.45;;;15.90;;
56183;SDS011;42086;53.170;6.980;2022-07-30T06:08:37;23.17;;;16.90;;
56183;SDS011;42086;53.170;6.980;2022-07-30T06:11:03;22.10;;;15.32;;
56183;SDS011;42086;53.170;6.980;2022-07-30T06:13:29;21.13;;;15.18;;
56183;SDS011;42086;53.170;6.980;2022-07-30T06:15:56;23.75;;;15.75;;
56183;SDS011;42086;53.170;6.980;2022-07-30T06:18:22;24.77;;;15.25;;
56183;SDS011;42086;53.170;6.980;2022-07-30T06:20:48;18.75;;;14.27;;
56183;SDS011;42086;53.170;6.980;2022-07-30T06:23:16;20.08;;;14.60;;
56183;SDS011;42086;53.170;6.980;2022-07-30T06:25:42;21.98;;;15.35;;
56183;SDS011;42086;53.170;6.980;2022-07-30T06:28:08;20.98;;;14.93;;
56183;SDS011;42086;53.170;6.980;2022-07-30T06:30:34;24.60;;;14.77;;
56183;SDS011;42086;53.170;6.980;2022-07-30T06:33:00;19.40;;;14.63;;
56183;SDS011;42086;53.170;6.980;2022-07-30T06:35:26;22.20;;;14.63;;
56183;SDS011;42086;53.170;6.980;2022-07-30T06:37:52;19.35;;;14.30;;
56183;SDS011;42086;53.170;6.980;2022-07-30T06:40:18;22.08;;;14.70;;
56183;SDS011;42086;53.170;6.980;2022-07-30T06:42:44;17.40;;;13.52;;
56183;SDS011;42086;53.170;6.980;2022-07-30T06:45:10;18.58;;;13.40;;
56183;SDS011;42086;53.170;6.980;2022-07-30T06:47:35;21.20;;;13.85;;
56183;SDS011;42086;53.170;6.980;2022-07-30T06:50:02;19.27;;;14.35;;
56183;SDS011;42086;53.170;6.980;2022-07-30T06:52:28;19.55;;;15.00;;
56183;SDS011;42086;53.170;6.980;2022-07-30T06:54:54;21.15;;;16.27;;
56183;SDS011;42086;53.170;6.980;2022-07-30T06:57:20;20.95;;;15.90;;
56183;SDS011;42086;53.170;6.980;2022-07-30T06:59:46;20.48;;;16.00;;
56183;SDS011;42086;53.170;6.980;2022-07-30T07:02:12;24.90;;;16.95;;
56183;SDS011;42086;53.170;6.980;2022-07-30T07:04:38;22.27;;;14.10;;
56183;SDS011;42086;53.170;6.980;2022-07-30T07:07:04;21.85;;;15.10;;
56183;SDS011;42086;53.170;6.980;2022-07-30T07:09:30;20.35;;;14.00;;
56183;SDS011;42086;53.170;6.980;2022-07-30T07:11:55;15.35;;;11.25;;
56183;SDS011;42086;53.170;6.980;2022-07-30T07:14:21;17.20;;;11.68;;
56183;SDS011;42086;53.170;6.980;2022-07-30T07:16:47;16.13;;;10.90;;
56183;SDS011;42086;53.170;6.980;2022-07-30T07:19:14;14.00;;;9.77;;
56183;SDS011;42086;53.170;6.980;2022-07-30T07:21:40;18.20;;;11.70;;
56183;SDS011;42086;53.170;6.980;2022-07-30T07:24:06;15.38;;;11.55;;
56183;SDS011;42086;53.170;6.980;2022-07-30T07:26:33;17.33;;;11.45;;
56183;SDS011;42086;53.170;6.980;2022-07-30T07:28:59;19.98;;;10.82;;
56183;SDS011;42086;53.170;6.980;2022-07-30T07:31:25;16.63;;;10.77;;
56183;SDS011;42086;53.170;6.980;2022-07-30T07:33:51;15.30;;;11.55;;
56183;SDS011;42086;53.170;6.980;2022-07-30T07:36:21;17.63;;;10.95;;
56183;SDS011;42086;53.170;6.980;2022-07-30T07:38:47;18.67;;;12.23;;
56183;SDS011;42086;53.170;6.980;2022-07-30T07:41:14;16.50;;;12.52;;
56183;SDS011;42086;53.170;6.980;2022-07-30T07:43:40;18.00;;;12.52;;
56183;SDS011;42086;53.170;6.980;2022-07-30T07:46:06;18.55;;;12.75;;
56183;SDS011;42086;53.170;6.980;2022-07-30T07:48:32;17.95;;;12.38;;
56183;SDS011;42086;53.170;6.980;2022-07-30T07:50:58;19.27;;;14.05;;
56183;SDS011;42086;53.170;6.980;2022-07-30T07:53:24;19.02;;;12.88;;
56183;SDS011;42086;53.170;6.980;2022-07-30T07:55:50;14.98;;;12.80;;
56183;SDS011;42086;53.170;6.980;2022-07-30T07:58:16;18.15;;;13.63;;
56183;SDS011;42086;53.170;6.980;2022-07-30T08:00:43;16.25;;;12.48;;
56183;SDS011;42086;53.170;6.980;2022-07-30T08:03:09;18.02;;;12.18;;
56183;SDS011;42086;53.170;6.980;2022-07-30T08:05:34;16.27;;;11.73;;
56183;SDS011;42086;53.170;6.980;2022-07-30T08:08:00;16.58;;;11.57;;
56183;SDS011;42086;53.170;6.980;2022-07-30T08:10:26;17.25;;;12.30;;
56183;SDS011;42086;53.170;6.980;2022-07-30T08:12:52;17.55;;;11.15;;
56183;SDS011;42086;53.170;6.980;2022-07-30T08:15:19;14.80;;;9.63;;
56183;SDS011;42086;53.170;6.980;2022-07-30T08:17:45;12.52;;;9.63;;
56183;SDS011;42086;53.170;6.980;2022-07-30T08:20:12;13.15;;;10.18;;
56183;SDS011;42086;53.170;6.980;2022-07-30T08:22:39;14.98;;;9.75;;
56183;SDS011;42086;53.170;6.980;2022-07-30T08:25:06;13.13;;;10.00;;
56183;SDS011;42086;53.170;6.980;2022-07-30T08:27:32;14.20;;;9.88;;
56183;SDS011;42086;53.170;6.980;2022-07-30T08:30:02;14.77;;;10.25;;
56183;SDS011;42086;53.170;6.980;2022-07-30T08:32:29;15.25;;;9.82;;
56183;SDS011;42086;53.170;6.980;2022-07-30T08:34:55;12.52;;;10.82;;
56183;SDS011;42086;53.170;6.980;2022-07-30T08:37:21;13.23;;;10.60;;
56183;SDS011;42086;53.170;6.980;2022-07-30T08:39:47;14.60;;;9.68;;
56183;SDS011;42086;53.170;6.980;2022-07-30T08:42:13;13.38;;;9.02;;
56183;SDS011;42086;53.170;6.980;2022-07-30T08:44:39;14.02;;;7.35;;
56183;SDS011;42086;53.170;6.980;2022-07-30T08:47:08;13.63;;;7.75;;
56183;SDS011;42086;53.170;6.980;2022-07-30T08:49:36;12.25;;;7.50;;
56183;SDS011;42086;53.170;6.980;2022-07-30T08:52:02;10.85;;;7.40;;
56183;SDS011;42086;53.170;6.980;2022-07-30T08:54:29;12.95;;;7.63;;
56183;SDS011;42086;53.170;6.980;2022-07-30T08:56:55;15.02;;;7.38;;
56183;SDS011;42086;53.170;6.980;2022-07-30T08:59:23;12.70;;;7.55;;
56183;SDS011;42086;53.170;6.980;2022-07-30T09:01:49;14.98;;;7.72;;
56183;SDS011;42086;53.170;6.980;2022-07-30T09:04:16;9.20;;;7.18;;
56183;SDS011;42086;53.170;6.980;2022-07-30T09:06:43;11.55;;;7.45;;
56183;SDS011;42086;53.170;6.980;2022-07-30T09:09:09;11.35;;;7.47;;
56183;SDS011;42086;53.170;6.980;2022-07-30T09:11:36;10.73;;;7.57;;
56183;SDS011;42086;53.170;6.980;2022-07-30T09:14:09;13.10;;;8.20;;
56183;SDS011;42086;53.170;6.980;2022-07-30T09:16:37;12.52;;;8.00;;
56183;SDS011;42086;53.170;6.980;2022-07-30T09:19:17;12.73;;;7.80;;
56183;SDS011;42086;53.170;6.980;2022-07-30T09:21:59;13.13;;;7.97;;
56183;SDS011;42086;53.170;6.980;2022-07-30T09:24:26;11.02;;;8.15;;
56183;SDS011;42086;53.170;6.980;2022-07-30T09:26:57;12.32;;;7.78;;
56183;SDS011;42086;53.170;6.980;2022-07-30T09:29:25;11.77;;;6.30;;
56183;SDS011;42086;53.170;6.980;2022-07-30T09:31:53;11.43;;;7.15;;
56183;SDS011;42086;53.170;6.980;2022-07-30T09:34:24;12.10;;;7.05;;
56183;SDS011;42086;53.170;6.980;2022-07-30T09:36:50;14.35;;;7.55;;
56183;SDS011;42086;53.170;6.980;2022-07-30T09:39:33;11.65;;;7.13;;
56183;SDS011;42086;53.170;6.980;2022-07-30T09:42:02;14.35;;;7.28;;
56183;SDS011;42086;53.170;6.980;2022-07-30T09:44:30;9.65;;;7.43;;
56183;SDS011;42086;53.170;6.980;2022-07-30T09:46:56;7.88;;;6.60;;
56183;SDS011;42086;53.170;6.980;2022-07-30T09:49:26;12.27;;;7.07;;
56183;SDS011;42086;53.170;6.980;2022-07-30T09:51:53;9.63;;;6.72;;
56183;SDS011;42086;53.170;6.980;2022-07-30T09:54:20;7.57;;;6.13;;
56183;SDS011;42086;53.170;6.980;2022-07-30T09:56:47;11.65;;;7.07;;
56183;SDS011;42086;53.170;6.980;2022-07-30T09:59:30;11.73;;;6.40;;
56183;SDS011;42086;53.170;6.980;2022-07-30T10:01:57;9.60;;;6.38;;
56183;SDS011;42086;53.170;6.980;2022-07-30T10:04:24;9.82;;;6.30;;
56183;SDS011;42086;53.170;6.980;2022-07-30T10:06:51;10.20;;;5.88;;
56183;SDS011;42086;53.170;6.980;2022-07-30T10:09:30;10.45;;;6.18;;
56183;SDS011;42086;53.170;6.980;2022-07-30T10:12:03;9.63;;;5.68;;
56183;SDS011;42086;53.170;6.980;2022-07-30T10:14:33;8.75;;;5.57;;
56183;SDS011;42086;53.170;6.980;2022-07-30T10:17:01;10.68;;;5.82;;
56183;SDS011;42086;53.170;6.980;2022-07-30T10:19:28;11.55;;;5.55;;
56183;SDS011;42086;53.170;6.980;2022-07-30T10:21:55;9.25;;;5.72;;
56183;SDS011;42086;53.170;6.980;2022-07-30T10:24:23;8.85;;;5.80;;
56183;SDS011;42086;53.170;6.980;2022-07-30T10:26:50;13.50;;;5.68;;
56183;SDS011;42086;53.170;6.980;2022-07-30T10:29:17;6.85;;;4.60;;
56183;SDS011;42086;53.170;6.980;2022-07-30T10:31:44;6.50;;;5.78;;
56183;SDS011;42086;53.170;6.980;2022-07-30T10:34:15;6.65;;;5.20;;
56183;SDS011;42086;53.170;6.980;2022-07-30T10:36:42;10.02;;;5.22;;
56183;SDS011;42086;53.170;6.980;2022-07-30T10:39:13;9.73;;;5.60;;
56183;SDS011;42086;53.170;6.980;2022-07-30T10:47:07;6.88;;;4.63;;
56183;SDS011;42086;53.170;6.980;2022-07-30T10:49:39;7.18;;;4.63;;
56183;SDS011;42086;53.170;6.980;2022-07-30T10:52:05;10.18;;;4.43;;
56183;SDS011;42086;53.170;6.980;2022-07-30T10:57:15;7.35;;;4.30;;
56183;SDS011;42086;53.170;6.980;2022-07-30T11:02:22;7.68;;;4.50;;
56183;SDS011;42086;53.170;6.980;2022-07-30T11:04:49;9.82;;;4.65;;
56183;SDS011;42086;53.170;6.980;2022-07-30T11:07:35;8.18;;;4.47;;
56183;SDS011;42086;53.170;6.980;2022-07-30T11:10:01;7.57;;;4.10;;
56183;SDS011;42086;53.170;6.980;2022-07-30T11:15:10;8.63;;;4.45;;
56183;SDS011;42086;53.170;6.980;2022-07-30T11:17:56;22.80;;;5.07;;
56183;SDS011;42086;53.170;6.980;2022-07-30T11:20:25;9.82;;;4.30;;
56183;SDS011;42086;53.170;6.980;2022-07-30T11:23:07;7.30;;;4.37;;
56183;SDS011;42086;53.170;6.980;2022-07-30T11:25:53;5.90;;;4.03;;
56183;SDS011;42086;53.170;6.980;2022-07-30T11:31:24;6.15;;;4.20;;
56183;SDS011;42086;53.170;6.980;2022-07-30T11:42:28;5.80;;;3.80;;
56183;SDS011;42086;53.170;6.980;2022-07-30T11:45:17;5.80;;;3.65;;
56183;SDS011;42086;53.170;6.980;2022-07-30T11:47:48;4.50;;;3.97;;
56183;SDS011;42086;53.170;6.980;2022-07-30T11:50:19;7.78;;;3.95;;
56183;SDS011;42086;53.170;6.980;2022-07-30T11:52:54;6.07;;;4.03;;
56183;SDS011;42086;53.170;6.980;2022-07-30T11:55:23;5.00;;;3.95;;
56183;SDS011;42086;53.170;6.980;2022-07-30T11:57:54;7.93;;;3.80;;
56183;SDS011;42086;53.170;6.980;2022-07-30T12:00:22;8.18;;;3.78;;
56183;SDS011;42086;53.170;6.980;2022-07-30T12:02:48;7.55;;;3.85;;
56183;SDS011;42086;53.170;6.980;2022-07-30T12:05:16;7.53;;;3.58;;
56183;SDS011;42086;53.170;6.980;2022-07-30T12:07:49;5.65;;;3.58;;
56183;SDS011;42086;53.170;6.980;2022-07-30T12:10:16;8.07;;;4.03;;
56183;SDS011;42086;53.170;6.980;2022-07-30T12:12:44;5.82;;;3.00;;
56183;SDS011;42086;53.170;6.980;2022-07-30T12:15:26;9.52;;;3.58;;
56183;SDS011;42086;53.170;6.980;2022-07-30T12:17:54;7.45;;;3.95;;
56183;SDS011;42086;53.170;6.980;2022-07-30T12:20:20;5.82;;;3.47;;
56183;SDS011;42086;53.170;6.980;2022-07-30T12:22:46;6.13;;;3.50;;
56183;SDS011;42086;53.170;6.980;2022-07-30T12:25:12;6.60;;;3.40;;
56183;SDS011;42086;53.170;6.980;2022-07-30T12:27:39;7.97;;;4.15;;
56183;SDS011;42086;53.170;6.980;2022-07-30T12:30:09;6.40;;;3.50;;
56183;SDS011;42086;53.170;6.980;2022-07-30T12:32:35;5.85;;;3.42;;
56183;SDS011;42086;53.170;6.980;2022-07-30T12:35:01;6.30;;;3.20;;
56183;SDS011;42086;53.170;6.980;2022-07-30T12:37:28;5.75;;;3.40;;
56183;SDS011;42086;53.170;6.980;2022-07-30T12:40:08;4.90;;;2.92;;
56183;SDS011;42086;53.170;6.980;2022-07-30T12:42:36;3.97;;;3.40;;
56183;SDS011;42086;53.170;6.980;2022-07-30T12:45:24;9.18;;;3.28;;
56183;SDS011;42086;53.170;6.980;2022-07-30T12:47:51;16.90;;;3.70;;
56183;SDS011;42086;53.170;6.980;2022-07-30T12:50:17;4.95;;;3.47;;
56183;SDS011;42086;53.170;6.980;2022-07-30T12:52:47;5.15;;;3.00;;
56183;SDS011;42086;53.170;6.980;2022-07-30T12:55:15;3.83;;;3.25;;
56183;SDS011;42086;53.170;6.980;2022-07-30T13:03:24;8.93;;;3.00;;
56183;SDS011;42086;53.170;6.980;2022-07-30T13:05:52;4.93;;;2.95;;
56183;SDS011;42086;53.170;6.980;2022-07-30T13:08:20;6.85;;;3.13;;
56183;SDS011;42086;53.170;6.980;2022-07-30T13:11:06;8.05;;;3.25;;
56183;SDS011;42086;53.170;6.980;2022-07-30T13:13:32;7.22;;;3.05;;
56183;SDS011;42086;53.170;6.980;2022-07-30T13:16:03;3.83;;;2.78;;
56183;SDS011;42086;53.170;6.980;2022-07-30T13:18:30;5.38;;;2.58;;
56183;SDS011;42086;53.170;6.980;2022-07-30T13:20:58;4.88;;;2.63;;
56183;SDS011;42086;53.170;6.980;2022-07-30T13:23:26;5.72;;;2.40;;
56183;SDS011;42086;53.170;6.980;2022-07-30T13:25:52;4.43;;;2.65;;
56183;SDS011;42086;53.170;6.980;2022-07-30T13:28:19;7.22;;;2.60;;
56183;SDS011;42086;53.170;6.980;2022-07-30T13:30:45;3.80;;;2.70;;
56183;SDS011;42086;53.170;6.980;2022-07-30T13:33:12;5.93;;;2.63;;
56183;SDS011;42086;53.170;6.980;2022-07-30T13:35:38;4.38;;;2.90;;
56183;SDS011;42086;53.170;6.980;2022-07-30T13:38:05;3.70;;;2.30;;
56183;SDS011;42086;53.170;6.980;2022-07-30T13:40:32;3.72;;;2.35;;
56183;SDS011;42086;53.170;6.980;2022-07-30T13:42:59;3.97;;;2.20;;
56183;SDS011;42086;53.170;6.980;2022-07-30T13:45:26;3.30;;;1.92;;
56183;SDS011;42086;53.170;6.980;2022-07-30T13:47:52;5.00;;;2.10;;
56183;SDS011;42086;53.170;6.980;2022-07-30T13:50:18;4.35;;;2.42;;
56183;SDS011;42086;53.170;6.980;2022-07-30T13:52:44;6.00;;;2.60;;
56183;SDS011;42086;53.170;6.980;2022-07-30T13:55:10;7.40;;;2.30;;
56183;SDS011;42086;53.170;6.980;2022-07-30T13:57:36;3.60;;;2.20;;
56183;SDS011;42086;53.170;6.980;2022-07-30T14:00:06;5.72;;;2.38;;
56183;SDS011;42086;53.170;6.980;2022-07-30T14:02:33;3.40;;;2.22;;
56183;SDS011;42086;53.170;6.980;2022-07-30T14:04:59;5.07;;;2.35;;
56183;SDS011;42086;53.170;6.980;2022-07-30T14:07:35;4.13;;;2.22;;
56183;SDS011;42086;53.170;6.980;2022-07-30T14:12:28;4.75;;;2.30;;
56183;SDS011;42086;53.170;6.980;2022-07-30T14:14:54;3.63;;;2.05;;
56183;SDS011;42086;53.170;6.980;2022-07-30T14:17:20;7.40;;;3.30;;
56183;SDS011;42086;53.170;6.980;2022-07-30T14:19:46;5.10;;;2.90;;
56183;SDS011;42086;53.170;6.980;2022-07-30T14:22:14;7.15;;;3.05;;
56183;SDS011;42086;53.170;6.980;2022-07-30T14:24:40;7.63;;;2.90;;
56183;SDS011;42086;53.170;6.980;2022-07-30T14:27:06;6.35;;;2.80;;
56183;SDS011;42086;53.170;6.980;2022-07-30T14:29:32;4.70;;;2.50;;
56183;SDS011;42086;53.170;6.980;2022-07-30T14:31:58;7.00;;;2.92;;
56183;SDS011;42086;53.170;6.980;2022-07-30T14:34:24;6.93;;;2.92;;
56183;SDS011;42086;53.170;6.980;2022-07-30T14:36:50;4.72;;;2.92;;
56183;SDS011;42086;53.170;6.980;2022-07-30T14:39:15;5.70;;;2.60;;
56183;SDS011;42086;53.170;6.980;2022-07-30T14:41:41;5.32;;;2.55;;
56183;SDS011;42086;53.170;6.980;2022-07-30T14:44:07;3.10;;;2.15;;
56183;SDS011;42086;53.170;6.980;2022-07-30T14:46:36;4.07;;;2.60;;
56183;SDS011;42086;53.170;6.980;2022-07-30T14:49:02;4.32;;;2.75;;
56183;SDS011;42086;53.170;6.980;2022-07-30T14:51:28;5.85;;;2.78;;
56183;SDS011;42086;53.170;6.980;2022-07-30T14:53:55;6.60;;;2.63;;
56183;SDS011;42086;53.170;6.980;2022-07-30T14:56:21;6.82;;;2.50;;
56183;SDS011;42086;53.170;6.980;2022-07-30T14:58:49;7.40;;;2.90;;
56183;SDS011;42086;53.170;6.980;2022-07-30T15:01:15;5.72;;;2.60;;
56183;SDS011;42086;53.170;6.980;2022-07-30T15:03:41;5.57;;;2.50;;
56183;SDS011;42086;53.170;6.980;2022-07-30T15:06:08;3.75;;;2.50;;
56183;SDS011;42086;53.170;6.980;2022-07-30T15:08:36;5.07;;;2.30;;
56183;SDS011;42086;53.170;6.980;2022-07-30T15:11:03;4.80;;;2.28;;
56183;SDS011;42086;53.170;6.980;2022-07-30T15:13:29;3.15;;;1.98;;
56183;SDS011;42086;53.170;6.980;2022-07-30T15:15:55;4.72;;;2.45;;
56183;SDS011;42086;53.170;6.980;2022-07-30T15:18:21;3.47;;;1.85;;